Time;durP1;ratioP1;P1;durP2;ratioP2;P2;SDS_P1;SDS_P2;PMS_P1;PMS_P2;Temp;Humidity;BMP_temperature;BMP_pressure;BME280_temperature;BME280_humidity;BME280_pressure;Samples;Min_cycle;Max_cycle;Signal;HPM_P1;HPM_P2
2021/01/16 00:02:25;;;;;;;5.97;4.10;;;7.90;79.50;;;;;;5095782;28;20433;-45
2021/01/16 00:04:51;;;;;;;5.65;3.97;;;7.90;79.40;;;;;;5095622;28;20513;-47
2021/01/16 00:07:17;;;;;;;4.70;4.10;;;7.90;79.50;;;;;;5095356;28;20060;-44
2021/01/16 00:09:43;;;;;;;5.10;3.90;;;7.90;79.50;;;;;;5095669;28;20134;-45
2021/01/16 00:12:09;;;;;;;6.07;4.35;;;7.90;79.50;;;;;;5095816;28;20059;-44
2021/01/16 00:14:34;;;;;;;5.50;3.90;;;7.90;79.40;;;;;;5095242;28;20480;-42
2021/01/16 00:17:00;;;;;;;5.22;4.03;;;7.90;79.50;;;;;;5095312;28;20079;-43
2021/01/16 00:19:26;;;;;;;5.90;4.10;;;7.90;79.50;;;;;;5095290;28;20058;-47
2021/01/16 00:21:51;;;;;;;4.90;3.85;;;7.90;79.50;;;;;;5094635;28;20044;-46
2021/01/16 00:24:17;;;;;;;4.70;3.80;;;7.90;79.50;;;;;;5095372;28;20048;-44
2021/01/16 00:26:43;;;;;;;5.82;4.18;;;7.90;79.50;;;;;;5094922;28;20475;-44
2021/01/16 00:29:08;;;;;;;6.25;4.32;;;7.90;79.50;;;;;;5094580;28;20056;-45
2021/01/16 00:31:34;;;;;;;5.05;3.70;;;7.90;79.50;;;;;;5095009;28;20080;-41
2021/01/16 00:33:59;;;;;;;5.43;4.10;;;7.90;79.50;;;;;;5095005;28;20055;-43
2021/01/16 00:36:25;;;;;;;5.10;4.10;;;7.90;79.50;;;;;;5095303;28;20055;-47
2021/01/16 00:38:51;;;;;;;6.03;4.78;;;7.90;79.50;;;;;;5094738;28;20617;-41
2021/01/16 00:41:17;;;;;;;6.13;4.13;;;7.90;79.50;;;;;;5094767;28;20073;-47
2021/01/16 00:43:42;;;;;;;5.90;4.18;;;7.90;79.50;;;;;;5094574;28;20136;-48
2021/01/16 00:46:08;;;;;;;5.07;4.13;;;7.90;79.50;;;;;;5094657;28;20476;-45
2021/01/16 00:48:34;;;;;;;5.43;3.92;;;7.90;79.50;;;;;;5094874;28;20053;-42
2021/01/16 00:50:59;;;;;;;5.65;4.28;;;7.90;79.50;;;;;;5094914;28;20055;-45
2021/01/16 00:53:25;;;;;;;6.10;4.03;;;7.90;79.50;;;;;;5094897;28;20131;-47
2021/01/16 00:55:51;;;;;;;5.63;3.90;;;7.90;79.50;;;;;;5094246;28;20068;-48
2021/01/16 00:58:19;;;;;;;5.57;4.18;;;7.90;79.50;;;;;;5094565;28;20040;-43
2021/01/16 01:00:47;;;;;;;6.00;4.13;;;7.90;79.50;;;;;;5094189;28;20128;-47
2021/01/16 01:03:22;;;;;;;5.15;3.78;;;7.90;79.50;;;;;;5094610;28;20261;-44
2021/01/16 01:05:50;;;;;;;5.07;3.97;;;7.90;79.50;;;;;;5094401;28;20066;-44
2021/01/16 01:08:15;;;;;;;5.32;4.22;;;7.90;79.50;;;;;;5094645;28;20048;-47
2021/01/16 01:10:44;;;;;;;5.28;4.20;;;7.90;79.50;;;;;;5094152;28;20055;-44
2021/01/16 01:13:10;;;;;;;5.97;4.25;;;7.90;79.50;;;;;;5094306;28;20504;-43
2021/01/16 01:15:37;;;;;;;5.50;4.25;;;7.90;79.50;;;;;;5093907;28;20511;-43
2021/01/16 01:18:03;;;;;;;5.45;4.18;;;7.90;79.50;;;;;;5093441;28;20048;-42
2021/01/16 01:20:29;;;;;;;5.97;3.85;;;7.90;79.50;;;;;;5094135;28;20044;-42
2021/01/16 01:22:56;;;;;;;5.53;4.15;;;7.90;79.50;;;;;;5094153;28;20052;-42
2021/01/16 01:25:22;;;;;;;6.10;4.50;;;7.90;79.50;;;;;;5094354;28;20052;-42
2021/01/16 01:27:50;;;;;;;5.90;4.07;;;7.80;79.40;;;;;;5093733;28;20092;-41
2021/01/16 01:30:17;;;;;;;5.28;3.88;;;7.90;79.50;;;;;;5093422;28;20040;-42
2021/01/16 01:32:43;;;;;;;4.63;3.75;;;7.90;79.50;;;;;;5094107;28;20113;-42
2021/01/16 01:35:10;;;;;;;5.95;4.38;;;7.90;79.50;;;;;;5094106;28;20527;-43
2021/01/16 01:37:43;;;;;;;5.10;3.97;;;7.90;79.50;;;;;;5093247;28;20788;-41
2021/01/16 01:40:10;;;;;;;6.22;4.45;;;7.90;79.50;;;;;;5093949;28;20072;-43
2021/01/16 01:42:36;;;;;;;4.43;3.60;;;7.90;79.50;;;;;;5093755;28;20044;-42
2021/01/16 01:45:04;;;;;;;6.07;3.78;;;7.90;79.50;;;;;;5093340;28;20051;-43
2021/01/16 01:47:30;;;;;;;5.63;4.55;;;7.90;79.50;;;;;;5093424;28;20519;-41
2021/01/16 01:49:56;;;;;;;6.63;4.20;;;7.90;79.50;;;;;;5093292;28;20040;-42
2021/01/16 01:52:21;;;;;;;4.05;3.33;;;7.80;79.40;;;;;;5093642;28;20403;-43
2021/01/16 01:54:50;;;;;;;5.45;3.92;;;7.90;79.50;;;;;;5093916;28;20048;-41
2021/01/16 01:57:18;;;;;;;5.72;4.10;;;7.90;79.50;;;;;;5093774;28;20075;-44
2021/01/16 01:59:46;;;;;;;5.88;4.32;;;7.90;79.50;;;;;;5092969;28;20054;-41
2021/01/16 02:02:12;;;;;;;6.70;4.43;;;7.90;79.50;;;;;;5093375;28;20399;-44
2021/01/16 02:04:40;;;;;;;5.10;4.22;;;7.80;79.40;;;;;;5093536;28;20058;-41
2021/01/16 02:07:26;;;;;;;6.10;4.38;;;7.90;79.50;;;;;;5093332;28;20059;-42
2021/01/16 02:09:53;;;;;;;5.93;4.45;;;7.90;79.40;;;;;;5092998;28;20040;-41
2021/01/16 02:12:21;;;;;;;4.70;3.90;;;7.80;79.40;;;;;;5093146;28;20046;-43
2021/01/16 02:15:02;;;;;;;6.18;4.18;;;7.80;79.40;;;;;;5093477;28;20052;-42
2021/01/16 02:17:33;;;;;;;6.25;4.50;;;7.90;79.40;;;;;;5093187;28;20097;-45
2021/01/16 02:20:11;;;;;;;5.68;4.10;;;7.90;79.50;;;;;;5092622;28;20058;-41
2021/01/16 02:22:49;;;;;;;6.20;4.15;;;7.80;79.40;;;;;;5093147;28;20048;-45
2021/01/16 02:25:23;;;;;;;7.55;4.85;;;7.90;79.40;;;;;;5092960;28;20044;-45
2021/01/16 02:28:01;;;;;;;6.60;4.50;;;7.90;79.40;;;;;;5093160;28;20043;-47
2021/01/16 02:30:27;;;;;;;5.88;4.50;;;7.90;79.40;;;;;;5093092;28;20050;-48
2021/01/16 02:32:55;;;;;;;5.28;4.13;;;7.80;79.40;;;;;;5092190;28;20044;-46
2021/01/16 02:35:22;;;;;;;4.82;3.80;;;7.90;79.50;;;;;;5092899;28;20113;-44
2021/01/16 02:37:56;;;;;;;5.75;4.00;;;7.90;79.40;;;;;;5093144;28;20048;-41
2021/01/16 02:40:26;;;;;;;5.50;3.97;;;7.90;79.40;;;;;;5092913;28;20054;-42
2021/01/16 02:43:11;;;;;;;5.30;4.20;;;7.90;79.40;;;;;;5092505;28;20126;-41
2021/01/16 02:46:11;;;;;;;5.60;4.07;;;7.80;79.40;;;;;;5095912;28;20044;-45
2021/01/16 02:48:54;;;;;;;5.85;4.38;;;7.80;79.40;;;;;;5099349;28;20134;-44
2021/01/16 02:51:30;;;;;;;6.35;4.40;;;7.80;79.40;;;;;;5099665;28;20117;-45
2021/01/16 02:53:58;;;;;;;4.97;3.90;;;7.80;79.40;;;;;;5099206;28;20121;-44
2021/01/16 02:56:30;;;;;;;5.43;4.40;;;7.80;79.40;;;;;;5099631;28;20055;-45
2021/01/16 02:58:55;;;;;;;7.32;4.30;;;7.80;79.40;;;;;;5099756;28;20147;-42
2021/01/16 03:01:21;;;;;;;6.90;4.60;;;7.80;79.40;;;;;;5099391;28;20115;-45
2021/01/16 03:03:47;;;;;;;6.03;4.25;;;7.80;79.40;;;;;;5098996;28;20055;-46
2021/01/16 03:06:14;;;;;;;8.27;4.65;;;7.80;79.40;;;;;;5099367;28;20078;-42
2021/01/16 03:08:40;;;;;;;6.57;4.78;;;7.90;79.40;;;;;;5099425;28;20048;-43
2021/01/16 03:11:08;;;;;;;5.05;3.92;;;7.80;79.40;;;;;;5099263;28;20055;-42
2021/01/16 03:13:33;;;;;;;5.43;4.07;;;7.80;79.40;;;;;;5099274;28;20051;-45
2021/01/16 03:16:06;;;;;;;6.35;3.58;;;7.90;79.50;;;;;;5099399;28;20052;-42
2021/01/16 03:18:32;;;;;;;6.32;4.40;;;7.90;79.40;;;;;;5098996;28;20044;-45
2021/01/16 03:21:02;;;;;;;6.45;4.72;;;7.90;79.40;;;;;;5099360;28;20044;-42
2021/01/16 03:23:32;;;;;;;6.03;4.50;;;7.90;79.40;;;;;;5099206;28;20127;-44
2021/01/16 03:25:57;;;;;;;5.95;3.80;;;7.80;79.40;;;;;;5099123;28;20040;-42
2021/01/16 03:28:23;;;;;;;6.07;4.25;;;7.90;79.40;;;;;;5099234;28;20052;-40
2021/01/16 03:30:48;;;;;;;5.88;4.55;;;7.80;79.40;;;;;;5099064;28;20043;-43
2021/01/16 03:33:14;;;;;;;5.38;4.18;;;7.80;79.40;;;;;;5098956;28;20097;-47
2021/01/16 03:35:40;;;;;;;6.15;4.13;;;7.80;79.40;;;;;;5098723;28;20178;-46
2021/01/16 03:38:05;;;;;;;5.68;4.22;;;7.90;79.50;;;;;;5098935;28;20069;-42
2021/01/16 03:40:31;;;;;;;5.97;4.43;;;7.80;79.40;;;;;;5099008;28;20044;-47
2021/01/16 03:42:57;;;;;;;5.38;4.38;;;7.80;79.40;;;;;;5099211;28;20044;-45
2021/01/16 03:45:23;;;;;;;7.68;4.55;;;7.80;79.40;;;;;;5098759;28;20135;-41
2021/01/16 03:47:50;;;;;;;6.53;4.57;;;7.80;79.40;;;;;;5098974;28;20095;-40
2021/01/16 03:50:16;;;;;;;5.88;4.28;;;7.80;79.40;;;;;;5098880;28;20040;-46
2021/01/16 03:52:41;;;;;;;7.05;5.15;;;7.80;79.40;;;;;;5098986;28;20487;-44
2021/01/16 03:55:09;;;;;;;5.15;4.28;;;7.80;79.40;;;;;;5098949;28;20067;-44
2021/01/16 03:57:36;;;;;;;5.13;4.10;;;7.90;79.50;;;;;;5095205;28;20121;-46
2021/01/16 04:00:05;;;;;;;7.40;4.70;;;7.80;79.40;;;;;;5096058;28;20136;-48
2021/01/16 04:02:31;;;;;;;5.53;4.32;;;7.80;79.40;;;;;;5095745;28;20079;-46
2021/01/16 04:04:57;;;;;;;5.45;3.85;;;7.80;79.40;;;;;;5094963;28;20068;-46
2021/01/16 04:07:22;;;;;;;5.85;4.50;;;7.80;79.40;;;;;;5095637;28;20554;-45
2021/01/16 04:09:48;;;;;;;6.22;4.45;;;7.80;79.40;;;;;;5095442;28;20048;-39
2021/01/16 04:12:14;;;;;;;6.45;4.57;;;7.80;79.40;;;;;;5095414;28;20047;-42
2021/01/16 04:14:40;;;;;;;5.93;4.38;;;7.80;79.40;;;;;;5095415;28;20492;-42
2021/01/16 04:17:08;;;;;;;6.50;4.38;;;7.80;79.40;;;;;;5075375;28;20071;-42
2021/01/16 04:19:33;;;;;;;6.45;4.35;;;7.80;79.40;;;;;;5074945;28;20101;-41
2021/01/16 04:22:00;;;;;;;7.47;4.78;;;7.80;79.40;;;;;;5075239;28;20044;-42
2021/01/16 04:24:26;;;;;;;5.82;4.47;;;7.80;79.40;;;;;;5075024;28;20052;-43
2021/01/16 04:26:52;;;;;;;5.82;4.60;;;7.80;79.40;;;;;;5089101;28;20044;-42
2021/01/16 04:29:18;;;;;;;6.03;4.47;;;7.80;79.40;;;;;;5095407;28;20044;-43
2021/01/16 04:31:44;;;;;;;5.43;3.97;;;7.80;79.40;;;;;;5095385;28;20055;-41
2021/01/16 04:34:10;;;;;;;6.90;4.25;;;7.80;79.40;;;;;;5095379;28;20059;-42
2021/01/16 04:36:35;;;;;;;6.57;4.72;;;7.80;80.00;;;;;;5094357;28;20071;-41
2021/01/16 04:39:02;;;;;;;5.40;3.95;;;7.80;79.40;;;;;;5095053;28;20419;-42
2021/01/16 04:41:30;;;;;;;6.93;4.43;;;7.80;79.40;;;;;;5094407;28;20381;-43
2021/01/16 04:43:56;;;;;;;6.68;4.57;;;7.80;79.40;;;;;;5094714;28;20141;-43
2021/01/16 04:46:22;;;;;;;5.72;4.38;;;7.80;79.40;;;;;;5094817;28;20070;-41
2021/01/16 04:48:56;;;;;;;6.03;4.88;;;7.80;79.40;;;;;;5094857;28;20052;-42
2021/01/16 04:51:23;;;;;;;5.82;4.35;;;7.80;79.40;;;;;;5094555;28;20495;-42
2021/01/16 04:53:50;;;;;;;5.97;4.28;;;7.80;79.40;;;;;;5094604;28;20056;-41
2021/01/16 04:56:17;;;;;;;5.97;4.30;;;7.80;79.40;;;;;;5094845;28;20044;-47
2021/01/16 04:58:43;;;;;;;6.45;4.70;;;7.90;79.50;;;;;;5094212;28;20105;-41
2021/01/16 05:01:10;;;;;;;5.95;4.38;;;7.80;79.40;;;;;;5094500;28;20052;-40
2021/01/16 05:03:38;;;;;;;5.72;3.70;;;7.80;79.40;;;;;;5094703;28;20048;-47
2021/01/16 05:06:12;;;;;;;5.03;4.10;;;7.80;79.40;;;;;;5094234;28;20504;-44
2021/01/16 05:08:40;;;;;;;5.30;4.28;;;7.80;79.50;;;;;;5093618;28;20400;-42
2021/01/16 05:11:33;;;;;;;6.93;4.78;;;7.80;79.40;;;;;;5094420;28;20048;-43
2021/01/16 05:14:17;;;;;;;6.07;4.32;;;7.80;79.40;;;;;;5094124;28;20044;-42
2021/01/16 05:16:59;;;;;;;6.63;4.97;;;7.80;79.50;;;;;;5094328;28;20055;-46
2021/01/16 05:19:30;;;;;;;5.78;4.05;;;7.80;79.50;;;;;;5094050;28;20051;-43
2021/01/16 05:21:57;;;;;;;6.22;4.93;;;7.80;79.50;;;;;;5093908;28;20047;-45
2021/01/16 05:24:23;;;;;;;6.60;4.50;;;7.80;80.10;;;;;;5094443;28;20071;-45
2021/01/16 05:27:06;;;;;;;5.75;4.05;;;7.80;79.40;;;;;;5094152;28;20082;-47
2021/01/16 05:29:33;;;;;;;6.32;4.65;;;7.80;79.40;;;;;;5093873;28;20442;-39
2021/01/16 05:32:01;;;;;;;5.53;4.25;;;7.80;79.40;;;;;;5093935;28;20515;-47
2021/01/16 05:34:29;;;;;;;5.70;4.43;;;7.80;79.50;;;;;;5094148;28;20094;-46
2021/01/16 05:36:57;;;;;;;6.85;4.45;;;7.80;79.40;;;;;;5093511;28;20047;-41
2021/01/16 05:39:26;;;;;;;6.28;4.60;;;7.80;79.40;;;;;;5093808;28;20447;-45
2021/01/16 05:42:05;;;;;;;6.53;4.00;;;7.80;79.40;;;;;;5093508;28;20476;-46
2021/01/16 05:44:31;;;;;;;5.88;5.10;;;7.80;79.50;;;;;;5093678;28;20131;-45
2021/01/16 05:46:58;;;;;;;6.30;4.53;;;7.80;79.40;;;;;;5093740;28;20055;-41
2021/01/16 05:49:25;;;;;;;6.13;4.18;;;7.80;79.50;;;;;;5093788;28;20051;-47
2021/01/16 05:51:51;;;;;;;5.97;4.28;;;7.80;79.40;;;;;;5093168;28;20055;-42
2021/01/16 05:54:18;;;;;;;5.88;4.22;;;7.80;79.40;;;;;;5093482;28;20044;-47
2021/01/16 05:56:45;;;;;;;5.63;4.13;;;7.80;79.40;;;;;;5093440;28;20151;-39
2021/01/16 05:59:12;;;;;;;6.28;4.47;;;7.80;79.40;;;;;;5093371;28;20040;-43
2021/01/16 06:01:39;;;;;;;5.80;4.50;;;7.80;79.40;;;;;;5093164;28;20040;-45
2021/01/16 06:04:05;;;;;;;6.03;4.50;;;7.80;79.40;;;;;;5093253;28;20395;-44
2021/01/16 06:06:36;;;;;;;7.72;5.03;;;7.80;79.50;;;;;;5093558;28;20170;-40
2021/01/16 06:09:03;;;;;;;6.32;4.88;;;7.80;79.40;;;;;;5093147;28;20130;-42
2021/01/16 06:11:37;;;;;;;7.10;4.70;;;7.80;79.40;;;;;;5093290;28;20044;-42
2021/01/16 06:14:06;;;;;;;5.75;4.80;;;7.80;79.40;;;;;;5093114;28;20048;-43
2021/01/16 06:16:46;;;;;;;5.60;4.18;;;7.80;79.40;;;;;;5093411;28;20056;-42
2021/01/16 06:19:17;;;;;;;6.15;4.45;;;7.80;79.40;;;;;;5093222;28;20079;-43
2021/01/16 06:21:43;;;;;;;7.10;4.65;;;7.80;79.40;;;;;;5092666;28;20151;-43
2021/01/16 06:24:14;;;;;;;6.13;4.53;;;7.80;79.40;;;;;;5092477;28;20106;-42
2021/01/16 06:26:42;;;;;;;6.78;4.88;;;7.80;79.40;;;;;;5093228;28;20066;-44
2021/01/16 06:29:24;;;;;;;5.75;4.25;;;7.80;79.40;;;;;;5093212;28;20062;-43
2021/01/16 06:31:50;;;;;;;7.10;4.47;;;7.80;79.40;;;;;;5092956;28;20072;-44
2021/01/16 06:34:31;;;;;;;5.53;4.28;;;7.80;79.40;;;;;;5092619;28;20042;-44
2021/01/16 06:37:08;;;;;;;5.45;4.38;;;7.80;79.40;;;;;;5093055;28;20044;-45
2021/01/16 06:39:37;;;;;;;7.47;4.72;;;7.80;79.40;;;;;;5092984;28;20047;-42
2021/01/16 06:42:06;;;;;;;6.78;4.80;;;7.80;79.40;;;;;;5093044;28;20044;-41
2021/01/16 06:44:32;;;;;;;5.68;4.55;;;7.80;79.40;;;;;;5092407;28;20050;-41
2021/01/16 06:46:59;;;;;;;6.60;4.30;;;7.80;79.40;;;;;;5092686;28;20420;-45
2021/01/16 06:49:30;;;;;;;5.93;4.57;;;7.80;79.40;;;;;;5092757;28;20056;-40
2021/01/16 06:52:00;;;;;;;6.50;4.35;;;7.80;79.40;;;;;;5093066;28;20409;-42
2021/01/16 06:54:29;;;;;;;4.68;4.07;;;7.80;79.40;;;;;;5092623;28;20052;-44
2021/01/16 06:57:12;;;;;;;5.30;4.20;;;7.80;79.40;;;;;;5092494;28;20128;-47
2021/01/16 06:59:39;;;;;;;6.22;4.28;;;7.80;79.40;;;;;;5092586;28;20048;-46
2021/01/16 07:02:26;;;;;;;5.32;4.15;;;7.80;79.40;;;;;;5092501;28;20105;-42
2021/01/16 07:05:01;;;;;;;5.53;4.35;;;7.80;79.40;;;;;;5092829;28;20052;-44
2021/01/16 07:07:40;;;;;;;6.13;4.60;;;7.80;79.40;;;;;;5092375;28;20055;-44
2021/01/16 07:10:11;;;;;;;5.13;3.95;;;7.80;79.40;;;;;;5092301;28;20526;-42
2021/01/16 07:12:41;;;;;;;5.85;4.43;;;7.80;79.40;;;;;;5092768;28;20052;-42
2021/01/16 07:15:08;;;;;;;5.07;4.28;;;7.80;79.40;;;;;;5092677;28;20044;-42
2021/01/16 07:17:34;;;;;;;6.28;4.90;;;7.80;79.40;;;;;;5092416;28;20048;-42
2021/01/16 07:20:00;;;;;;;7.40;4.72;;;7.80;79.40;;;;;;5092262;28;20442;-42
2021/01/16 07:22:31;;;;;;;6.18;4.25;;;7.80;79.40;;;;;;5080026;28;20044;-43
2021/01/16 07:24:59;;;;;;;6.00;4.40;;;7.80;79.40;;;;;;5081759;28;20044;-43
2021/01/16 07:27:25;;;;;;;6.25;4.47;;;7.80;79.40;;;;;;5080888;28;20051;-43
2021/01/16 07:29:58;;;;;;;5.85;4.38;;;7.80;79.40;;;;;;5080916;28;20040;-41
2021/01/16 07:32:45;;;;;;;6.10;4.80;;;7.80;79.40;;;;;;5082841;28;20048;-39
2021/01/16 07:35:16;;;;;;;5.55;4.68;;;7.80;79.40;;;;;;5085623;28;20049;-40
2021/01/16 07:37:50;;;;;;;5.25;4.57;;;7.80;79.40;;;;;;5088122;28;20144;-39
2021/01/16 07:40:18;;;;;;;5.45;4.30;;;7.80;79.40;;;;;;5086119;28;20048;-39
2021/01/16 07:42:54;;;;;;;5.82;4.60;;;7.80;79.40;;;;;;5085686;28;20143;-40
2021/01/16 07:45:38;;;;;;;4.10;3.65;;;7.80;79.40;;;;;;5086940;28;20047;-40
2021/01/16 07:48:05;;;;;;;4.88;3.65;;;7.80;79.40;;;;;;5084276;28;20052;-42
2021/01/16 07:50:33;;;;;;;5.35;3.95;;;7.80;79.40;;;;;;5085306;28;20048;-41
2021/01/16 07:53:01;;;;;;;5.75;4.45;;;7.80;79.40;;;;;;5086370;28;20051;-40
2021/01/16 07:55:46;;;;;;;5.20;4.18;;;7.80;79.40;;;;;;5084645;28;20477;-40
2021/01/16 07:58:25;;;;;;;6.00;3.92;;;7.80;79.40;;;;;;5085377;28;20044;-40
2021/01/16 08:00:56;;;;;;;5.65;4.07;;;7.80;79.40;;;;;;5085340;28;20052;-40
2021/01/16 08:03:27;;;;;;;5.07;3.90;;;7.80;79.40;;;;;;5084296;28;20465;-40
2021/01/16 08:06:23;;;;;;;4.50;3.95;;;7.80;79.40;;;;;;5089310;28;20507;-40
2021/01/16 08:09:08;;;;;;;5.10;3.70;;;7.80;79.40;;;;;;5095849;28;20139;-41
2021/01/16 08:11:36;;;;;;;5.28;3.97;;;7.80;79.40;;;;;;5094478;28;20052;-40
2021/01/16 08:14:05;;;;;;;5.45;3.83;;;7.80;79.40;;;;;;5075519;28;20053;-41
2021/01/16 08:16:31;;;;;;;10.70;8.43;;;7.80;79.40;;;;;;5093357;28;20055;-40
2021/01/16 08:19:14;;;;;;;11.30;7.10;;;7.80;79.10;;;;;;5095499;28;20105;-40
2021/01/16 08:21:57;;;;;;;8.27;6.03;;;7.60;78.60;;;;;;5095504;28;20051;-41
2021/01/16 08:24:28;;;;;;;8.40;6.10;;;7.60;78.70;;;;;;5095434;28;20131;-42
2021/01/16 08:26:56;;;;;;;8.02;6.28;;;7.60;78.80;;;;;;5094598;28;20040;-41
2021/01/16 08:29:22;;;;;;;9.75;6.00;;;7.60;78.80;;;;;;5095403;28;20051;-41
2021/01/16 08:31:49;;;;;;;9.27;6.47;;;7.60;78.80;;;;;;5095274;28;20044;-43
2021/01/16 08:34:52;;;;;;;8.77;6.35;;;7.60;78.80;;;;;;5095116;28;20047;-42
2021/01/16 08:37:32;;;;;;;10.63;7.03;;;7.60;78.80;;;;;;5095319;28;20059;-39
2021/01/16 08:40:00;;;;;;;8.40;7.30;;;7.60;78.80;;;;;;5095030;28;20048;-41
2021/01/16 08:42:27;;;;;;;10.80;7.88;;;7.60;78.80;;;;;;5094522;28;20132;-41
2021/01/16 08:44:55;;;;;;;13.02;8.02;;;7.60;78.80;;;;;;5094064;28;20205;-40
2021/01/16 08:47:21;;;;;;;12.48;7.97;;;7.60;78.20;;;;;;5085056;28;20143;-39
2021/01/16 08:49:47;;;;;;;11.30;7.13;;;7.60;78.40;;;;;;5086001;28;20044;-39
2021/01/16 08:52:28;;;;;;;10.25;7.20;;;7.50;78.50;;;;;;5090321;28;20059;-39
2021/01/16 08:55:05;;;;;;;10.35;7.78;;;7.50;78.50;;;;;;5085546;28;20048;-39
2021/01/16 08:57:35;;;;;;;11.85;8.35;;;7.60;78.60;;;;;;5084515;28;20493;-40
2021/01/16 09:00:22;;;;;;;10.38;7.30;;;7.50;78.60;;;;;;5083347;28;20048;-39
2021/01/16 09:03:20;;;;;;;10.48;7.57;;;7.60;78.60;;;;;;5084561;28;20119;-39
2021/01/16 09:06:00;;;;;;;13.07;8.35;;;7.60;78.70;;;;;;5086351;28;20054;-36
2021/01/16 09:08:27;;;;;;;11.18;7.90;;;7.50;78.70;;;;;;5086708;28;20500;-40
2021/01/16 09:11:09;;;;;;;10.55;7.57;;;7.50;78.70;;;;;;5094624;28;20123;-39
2021/01/16 09:13:42;;;;;;;9.50;7.22;;;7.60;78.80;;;;;;5085523;28;20102;-39
2021/01/16 09:16:30;;;;;;;9.88;7.32;;;7.50;78.70;;;;;;5084305;28;20048;-39
2021/01/16 09:18:56;;;;;;;10.63;7.93;;;7.60;78.80;;;;;;5084221;28;20041;-39
2021/01/16 09:21:24;;;;;;;10.95;7.88;;;7.60;78.80;;;;;;5086330;28;20056;-39
2021/01/16 09:23:50;;;;;;;12.40;7.50;;;7.50;78.80;;;;;;5083747;28;20076;-39
2021/01/16 09:26:20;;;;;;;11.27;7.55;;;7.50;78.80;;;;;;5082878;28;20051;-43
2021/01/16 09:28:49;;;;;;;11.10;7.47;;;7.60;78.90;;;;;;5082583;28;20044;-49
2021/01/16 09:31:38;;;;;;;11.05;7.50;;;7.60;78.90;;;;;;5086151;28;20047;-46
2021/01/16 09:34:10;;;;;;;9.40;6.82;;;7.60;78.90;;;;;;5086513;28;20052;-41
2021/01/16 09:36:41;;;;;;;10.30;7.75;;;7.60;78.90;;;;;;5094228;28;20071;-42
2021/01/16 09:39:18;;;;;;;10.30;7.57;;;7.60;78.90;;;;;;5094060;28;20082;-43
2021/01/16 09:41:48;;;;;;;12.00;7.85;;;7.60;79.00;;;;;;5093441;28;20044;-44
2021/01/16 09:44:15;;;;;;;8.43;6.78;;;7.60;79.00;;;;;;5093417;28;20043;-43
2021/01/16 09:46:42;;;;;;;11.70;7.70;;;7.60;79.00;;;;;;5093882;28;20054;-43
2021/01/16 09:49:11;;;;;;;10.93;6.88;;;7.60;79.00;;;;;;5093694;28;20123;-43
2021/01/16 09:51:38;;;;;;;10.48;7.53;;;7.60;79.00;;;;;;5093672;28;20135;-45
2021/01/16 09:54:29;;;;;;;11.95;7.57;;;7.60;79.00;;;;;;5092566;28;20081;-43
2021/01/16 09:56:56;;;;;;;10.77;7.70;;;7.60;79.00;;;;;;5093260;28;20094;-46
2021/01/16 09:59:24;;;;;;;9.95;7.45;;;7.60;79.10;;;;;;5093484;28;20085;-44
2021/01/16 10:02:09;;;;;;;9.82;6.75;;;7.60;79.00;;;;;;5075470;28;20076;-45
2021/01/16 10:04:43;;;;;;;9.38;6.78;;;7.60;79.00;;;;;;5093433;28;20052;-43
2021/01/16 10:07:11;;;;;;;10.13;6.95;;;7.60;79.00;;;;;;5093523;28;20052;-43
2021/01/16 10:09:50;;;;;;;8.57;6.55;;;7.60;79.00;;;;;;5093660;28;20093;-44
2021/01/16 10:12:33;;;;;;;9.68;7.22;;;7.60;79.10;;;;;;5093532;28;20054;-41
2021/01/16 10:15:03;;;;;;;9.10;6.78;;;7.60;79.10;;;;;;5092938;28;20496;-44
2021/01/16 10:17:32;;;;;;;9.60;6.70;;;7.60;79.10;;;;;;5093188;28;20052;-44
2021/01/16 10:20:18;;;;;;;10.25;7.20;;;7.60;79.10;;;;;;5093508;28;20048;-43
2021/01/16 10:22:53;;;;;;;10.80;7.22;;;7.60;79.10;;;;;;5093352;28;20040;-43
2021/01/16 10:25:36;;;;;;;11.32;7.10;;;7.60;79.10;;;;;;5092972;28;20052;-43
2021/01/16 10:28:03;;;;;;;9.93;7.18;;;7.60;79.10;;;;;;5093028;28;20535;-43
2021/01/16 10:30:30;;;;;;;9.05;6.90;;;7.60;79.10;;;;;;5093001;28;20056;-43
2021/01/16 10:32:56;;;;;;;10.82;7.45;;;7.60;79.10;;;;;;5093129;28;20062;-43
2021/01/16 10:35:25;;;;;;;9.50;7.10;;;7.60;79.10;;;;;;5092937;28;20087;-43
2021/01/16 10:37:52;;;;;;;10.25;7.25;;;7.60;79.10;;;;;;5093011;28;20097;-44
2021/01/16 10:40:19;;;;;;;9.43;6.88;;;7.70;79.20;;;;;;5093107;28;20052;-43
2021/01/16 10:42:53;;;;;;;10.10;6.80;;;7.60;79.10;;;;;;5092885;28;20047;-44
2021/01/16 10:45:20;;;;;;;9.00;6.70;;;7.70;79.10;;;;;;5092281;28;20044;-43
2021/01/16 10:47:46;;;;;;;8.85;7.20;;;7.60;79.10;;;;;;5093151;28;20055;-42
2021/01/16 10:50:22;;;;;;;8.68;6.82;;;7.70;79.20;;;;;;5093043;28;20119;-43
2021/01/16 10:53:03;;;;;;;9.57;6.85;;;7.70;79.10;;;;;;5093043;28;20048;-43
2021/01/16 10:55:54;;;;;;;8.45;6.10;;;7.70;79.10;;;;;;5092773;28;20185;-43
2021/01/16 10:58:27;;;;;;;8.98;6.78;;;7.70;79.10;;;;;;5092974;28;20059;-43
2021/01/16 11:01:00;;;;;;;8.32;6.45;;;7.70;79.10;;;;;;5092574;28;20512;-43
2021/01/16 11:03:27;;;;;;;10.18;7.03;;;7.70;79.10;;;;;;5092734;28;20738;-43
2021/01/16 11:06:04;;;;;;;10.10;7.28;;;7.70;79.20;;;;;;5092444;28;20050;-49
2021/01/16 11:08:32;;;;;;;10.35;6.95;;;7.60;79.10;;;;;;5096874;28;20462;-42
2021/01/16 11:10:58;;;;;;;9.32;7.15;;;7.70;79.10;;;;;;5096885;28;20089;-48
2021/01/16 11:13:29;;;;;;;9.45;6.60;;;7.60;79.10;;;;;;5096706;28;20070;-43
2021/01/16 11:16:12;;;;;;;9.38;6.68;;;7.70;79.20;;;;;;5096213;28;20051;-46
2021/01/16 11:18:41;;;;;;;9.82;6.60;;;7.70;79.20;;;;;;5096532;28;20062;-43
2021/01/16 11:21:08;;;;;;;8.93;6.72;;;7.70;79.10;;;;;;5096654;28;20054;-47
2021/01/16 11:23:45;;;;;;;9.02;6.45;;;7.70;79.20;;;;;;5076582;28;20681;-59
2021/01/16 11:26:12;;;;;;;8.05;6.00;;;7.70;79.20;;;;;;5075871;28;20051;-53
2021/01/16 11:28:54;;;;;;;9.27;6.47;;;7.70;79.10;;;;;;5092214;28;20135;-55
2021/01/16 11:31:33;;;;;;;8.68;6.60;;;7.70;79.10;;;;;;5090933;28;20067;-52
2021/01/16 11:34:25;;;;;;;7.75;5.95;;;7.70;79.20;;;;;;5091259;28;20055;-48
2021/01/16 11:36:59;;;;;;;7.43;5.80;;;7.70;79.20;;;;;;5082483;28;20143;-53
2021/01/16 11:39:44;;;;;;;8.25;6.30;;;7.70;79.10;;;;;;5090676;28;20044;-51
2021/01/16 11:42:12;;;;;;;10.52;7.57;;;7.70;79.10;;;;;;5087409;28;20439;-54
2021/01/16 11:45:14;;;;;;;9.43;6.55;;;7.70;79.10;;;;;;5091508;28;20106;-51
2021/01/16 11:47:48;;;;;;;9.25;6.90;;;7.70;79.10;;;;;;4971510;28;20051;-56
2021/01/16 11:50:16;;;;;;;9.75;6.30;;;7.70;79.10;;;;;;4969170;28;20074;-52
2021/01/16 11:52:41;;;;;;;9.48;6.38;;;7.70;79.10;;;;;;4969172;28;20146;-54
2021/01/16 11:55:09;;;;;;;8.65;6.13;;;7.70;79.10;;;;;;4969119;28;20141;-55
2021/01/16 11:57:35;;;;;;;9.15;7.05;;;7.70;79.10;;;;;;4969547;28;20061;-50
2021/01/16 12:00:02;;;;;;;8.88;6.32;;;7.70;79.10;;;;;;4987928;28;20057;-47
2021/01/16 12:02:29;;;;;;;8.65;7.07;;;7.70;79.10;;;;;;4988343;28;20055;-55
2021/01/16 12:04:55;;;;;;;7.88;6.22;;;7.70;79.10;;;;;;4982253;28;20469;-52
2021/01/16 12:07:21;;;;;;;8.48;6.47;;;7.70;79.70;;;;;;4978511;28;20054;-53
2021/01/16 12:09:47;;;;;;;9.07;6.47;;;7.70;79.10;;;;;;4988495;28;20772;-56
2021/01/16 12:12:14;;;;;;;7.15;5.97;;;7.70;79.10;;;;;;4972193;28;20065;-54
2021/01/16 12:14:41;;;;;;;8.85;6.95;;;7.70;79.10;;;;;;4968755;28;20412;-54
2021/01/16 12:17:08;;;;;;;9.07;6.35;;;7.70;79.10;;;;;;4967888;28;20718;-52
2021/01/16 12:19:35;;;;;;;8.43;6.15;;;7.70;79.10;;;;;;4968335;28;20058;-52
2021/01/16 12:22:09;;;;;;;8.32;5.93;;;7.70;79.70;;;;;;4969614;28;20133;-46
2021/01/16 12:24:36;;;;;;;8.60;6.20;;;7.70;79.10;;;;;;5088591;28;20091;-54
2021/01/16 12:27:04;;;;;;;8.93;6.43;;;7.70;79.10;;;;;;5090473;28;20040;-57
2021/01/16 12:29:39;;;;;;;8.00;5.82;;;7.70;79.10;;;;;;5090409;28;20044;-56
2021/01/16 12:32:08;;;;;;;8.30;6.57;;;7.70;79.10;;;;;;5090050;28;20137;-51
2021/01/16 12:34:43;;;;;;;7.72;6.03;;;7.70;79.10;;;;;;5087321;28;20047;-57
2021/01/16 12:37:09;;;;;;;7.82;6.38;;;7.70;79.10;;;;;;5069470;28;20505;-55
2021/01/16 12:39:35;;;;;;;8.45;6.55;;;7.70;79.10;;;;;;5071307;28;20136;-56
2021/01/16 12:42:01;;;;;;;6.28;5.68;;;7.70;79.10;;;;;;5089717;28;20052;-52
2021/01/16 12:44:27;;;;;;;8.57;6.20;;;7.70;79.10;;;;;;5090195;28;20499;-55
2021/01/16 12:46:53;;;;;;;8.10;6.07;;;7.80;79.10;;;;;;5089760;28;20047;-50
2021/01/16 12:49:19;;;;;;;7.53;6.13;;;7.70;79.10;;;;;;5089791;28;20047;-58
2021/01/16 12:51:48;;;;;;;7.97;5.75;;;7.70;79.10;;;;;;5090285;28;20044;-56
2021/01/16 12:54:17;;;;;;;6.88;5.72;;;7.70;79.10;;;;;;5088947;28;20051;-56
2021/01/16 12:56:47;;;;;;;8.35;5.93;;;7.70;79.10;;;;;;5090133;28;20079;-56
2021/01/16 12:59:14;;;;;;;7.25;5.70;;;7.70;79.10;;;;;;5089443;28;20052;-57
2021/01/16 13:01:44;;;;;;;7.78;5.45;;;7.70;79.10;;;;;;5089906;28;20052;-55
2021/01/16 13:04:10;;;;;;;8.18;5.60;;;7.80;79.10;;;;;;5089250;28;20051;-56
2021/01/16 13:06:38;;;;;;;8.27;5.65;;;7.80;79.10;;;;;;5089970;28;20051;-51
2021/01/16 13:09:05;;;;;;;6.57;5.47;;;7.70;79.10;;;;;;5089766;28;20059;-54
2021/01/16 13:11:32;;;;;;;7.70;5.88;;;7.80;79.20;;;;;;5090189;28;20067;-45
2021/01/16 13:13:59;;;;;;;8.13;5.90;;;7.70;79.10;;;;;;5077488;28;20063;-52